Time;durP1;ratioP1;P1;durP2;ratioP2;P2;SDS_P1;SDS_P2;PMS_P1;PMS_P2;Temp;Humidity;BMP_temperature;BMP_pressure;BME280_temperature;BME280_humidity;BME280_pressure;Samples;Min_cycle;Max_cycle;Signal;HPM_P1;HPM_P2
2021/11/15 00:02:02;;;;;;;23.83;10.67;;;8.20;99.90;;;;;;5047973;28;20205;-76
2021/11/15 00:04:31;;;;;;;23.00;10.73;;;8.20;99.90;;;;;;5047627;28;20305;-76
2021/11/15 00:07:00;;;;;;;27.13;12.03;;;8.20;99.90;;;;;;5049113;28;20609;-75
2021/11/15 00:09:27;;;;;;;23.40;10.70;;;8.20;99.90;;;;;;5047072;28;20206;-75
2021/11/15 00:11:54;;;;;;;25.57;11.83;;;8.10;99.90;;;;;;5056816;28;20218;-75
2021/11/15 00:14:21;;;;;;;27.90;11.90;;;8.10;99.90;;;;;;5039678;28;20210;-75
2021/11/15 00:16:49;;;;;;;29.17;12.30;;;8.10;99.90;;;;;;5047434;28;20202;-74
2021/11/15 00:19:16;;;;;;;20.53;10.03;;;8.10;99.90;;;;;;5046800;28;20288;-75
2021/11/15 00:21:44;;;;;;;21.17;10.07;;;8.10;99.90;;;;;;5047095;28;20197;-74
2021/11/15 00:24:12;;;;;;;20.17;9.60;;;8.00;99.90;;;;;;5047521;28;20567;-75
2021/11/15 00:26:39;;;;;;;20.23;9.43;;;8.00;99.90;;;;;;5045784;28;20205;-74
2021/11/15 00:29:06;;;;;;;18.23;9.67;;;8.10;99.90;;;;;;5047482;28;20208;-74
2021/11/15 00:31:34;;;;;;;18.00;8.53;;;8.00;99.90;;;;;;5051900;28;20204;-74
2021/11/15 00:34:01;;;;;;;16.13;8.60;;;8.10;99.90;;;;;;5046657;28;20236;-75
2021/11/15 00:36:28;;;;;;;18.83;9.07;;;8.10;99.90;;;;;;5047359;28;20193;-75
2021/11/15 00:38:58;;;;;;;17.73;8.53;;;8.10;99.90;;;;;;5051958;28;20229;-75
2021/11/15 00:41:25;;;;;;;18.57;9.17;;;8.20;99.90;;;;;;5047386;28;20244;-75
2021/11/15 00:43:53;;;;;;;22.93;11.00;;;8.20;99.90;;;;;;5046464;28;20206;-75
2021/11/15 00:46:21;;;;;;;23.50;11.03;;;8.10;99.90;;;;;;5048331;28;20581;-74
2021/11/15 00:48:55;;;;;;;21.67;10.37;;;8.10;99.90;;;;;;5045858;28;20193;-75
2021/11/15 00:51:22;;;;;;;21.50;10.43;;;8.10;99.90;;;;;;5046233;28;20566;-75
2021/11/15 00:53:49;;;;;;;20.97;11.13;;;8.10;99.90;;;;;;5046985;28;20406;-75
2021/11/15 00:56:18;;;;;;;24.90;11.70;;;8.10;99.90;;;;;;5045906;28;20325;-75
2021/11/15 00:58:45;;;;;;;28.37;13.00;;;8.10;99.90;;;;;;5047424;28;20566;-75
2021/11/15 01:01:12;;;;;;;25.67;12.03;;;8.10;99.90;;;;;;5046763;28;20201;-75
2021/11/15 01:03:39;;;;;;;29.03;13.03;;;8.10;99.90;;;;;;5046202;28;20217;-75
2021/11/15 01:06:06;;;;;;;28.33;13.53;;;8.00;99.90;;;;;;5048071;28;20292;-75
2021/11/15 01:08:33;;;;;;;29.17;12.57;;;8.00;99.90;;;;;;5047773;28;20198;-75
2021/11/15 01:11:00;;;;;;;27.27;12.50;;;8.00;99.90;;;;;;5047052;28;20225;-74
2021/11/15 01:13:29;;;;;;;21.10;10.07;;;8.00;99.90;;;;;;5046442;28;20656;-75
2021/11/15 01:15:56;;;;;;;21.10;11.20;;;8.00;99.90;;;;;;5045976;28;20653;-75
2021/11/15 01:18:23;;;;;;;24.77;11.70;;;8.00;99.90;;;;;;5046394;28;20208;-73
2021/11/15 01:20:50;;;;;;;25.87;12.27;;;8.00;99.90;;;;;;5040346;28;20206;-74
2021/11/15 01:23:19;;;;;;;27.70;12.40;;;7.90;99.90;;;;;;5045539;28;20208;-75
2021/11/15 01:25:46;;;;;;;24.60;11.57;;;8.00;99.90;;;;;;5046272;28;20221;-75
2021/11/15 01:28:14;;;;;;;23.50;11.07;;;8.00;99.90;;;;;;5046116;28;20577;-75
2021/11/15 01:30:42;;;;;;;24.47;11.00;;;8.00;99.90;;;;;;5046129;28;20198;-75
2021/11/15 01:33:10;;;;;;;23.43;10.33;;;8.00;99.90;;;;;;5058131;28;20207;-75
2021/11/15 01:35:38;;;;;;;20.43;10.40;;;8.00;99.90;;;;;;5045547;28;20251;-75
2021/11/15 01:38:05;;;;;;;22.10;10.90;;;8.00;99.90;;;;;;5046255;28;20201;-75
2021/11/15 01:40:33;;;;;;;25.57;11.73;;;8.10;99.90;;;;;;5044741;28;20209;-75
2021/11/15 01:43:01;;;;;;;20.43;10.20;;;8.10;99.90;;;;;;5045633;28;20285;-74
2021/11/15 01:45:31;;;;;;;23.23;11.00;;;8.10;99.90;;;;;;5062107;28;20581;-75
2021/11/15 01:48:03;;;;;;;27.20;12.60;;;8.10;99.90;;;;;;5044947;28;20578;-75
2021/11/15 01:50:32;;;;;;;27.63;12.40;;;8.00;99.90;;;;;;5044587;28;20226;-75
2021/11/15 01:53:01;;;;;;;26.07;11.33;;;8.00;99.90;;;;;;5046610;28;20218;-75
2021/11/15 01:55:29;;;;;;;23.70;11.27;;;8.00;99.90;;;;;;5045166;28;20229;-75
2021/11/15 01:57:57;;;;;;;22.13;10.70;;;8.00;99.90;;;;;;5047666;28;20276;-75
2021/11/15 02:00:29;;;;;;;25.67;11.20;;;8.00;99.90;;;;;;5061142;28;20538;-75
2021/11/15 02:02:57;;;;;;;23.77;11.53;;;8.00;99.90;;;;;;5047357;28;20225;-75
2021/11/15 02:05:25;;;;;;;27.53;12.13;;;8.00;99.90;;;;;;5046760;28;20214;-75
2021/11/15 02:07:52;;;;;;;23.93;11.63;;;8.00;99.90;;;;;;5046742;28;20570;-76
2021/11/15 02:10:20;;;;;;;23.77;10.87;;;8.00;99.90;;;;;;5044540;28;20209;-75
2021/11/15 02:12:47;;;;;;;20.57;9.90;;;8.00;99.90;;;;;;5047601;28;20193;-75
2021/11/15 02:15:14;;;;;;;20.60;10.20;;;8.00;99.90;;;;;;5041481;28;20199;-75
2021/11/15 02:17:44;;;;;;;17.10;8.30;;;8.00;99.90;;;;;;5041924;28;20243;-75
2021/11/15 02:20:16;;;;;;;16.67;8.73;;;8.00;99.90;;;;;;5046569;28;20284;-75
2021/11/15 02:22:43;;;;;;;15.40;8.47;;;8.00;99.90;;;;;;5046857;28;20294;-75
2021/11/15 02:25:12;;;;;;;27.90;11.57;;;8.00;99.90;;;;;;5049077;28;20328;-74
2021/11/15 02:27:39;;;;;;;19.97;10.70;;;8.00;99.90;;;;;;5050178;28;20197;-74
2021/11/15 02:30:12;;;;;;;18.27;10.00;;;8.00;99.90;;;;;;5049838;28;20277;-74
2021/11/15 02:32:40;;;;;;;15.77;8.23;;;8.00;99.90;;;;;;5051348;28;20700;-74
2021/11/15 02:35:09;;;;;;;17.67;9.90;;;8.00;99.90;;;;;;5050781;28;20193;-74
2021/11/15 02:37:37;;;;;;;21.50;9.97;;;8.00;99.90;;;;;;5049427;28;20293;-75
2021/11/15 02:40:06;;;;;;;19.07;9.87;;;8.00;99.90;;;;;;5050353;28;20300;-75
2021/11/15 02:42:34;;;;;;;27.07;12.67;;;8.00;99.90;;;;;;5055810;28;20729;-75
2021/11/15 02:45:02;;;;;;;22.90;10.80;;;8.00;99.90;;;;;;5049780;28;20930;-75
2021/11/15 02:47:29;;;;;;;25.83;11.63;;;7.90;99.90;;;;;;5051200;28;20225;-75
2021/11/15 02:49:57;;;;;;;25.53;10.50;;;7.90;99.90;;;;;;5043384;28;20565;-75
2021/11/15 02:52:25;;;;;;;23.40;11.03;;;7.90;99.90;;;;;;5050189;28;20197;-75
2021/11/15 02:54:57;;;;;;;24.80;11.83;;;7.90;99.90;;;;;;5048629;28;20275;-75
2021/11/15 02:57:25;;;;;;;24.17;12.33;;;7.90;99.90;;;;;;5057365;28;20210;-75
2021/11/15 02:59:53;;;;;;;21.67;11.63;;;7.90;99.90;;;;;;5047927;28;20212;-75
2021/11/15 03:02:22;;;;;;;24.63;11.63;;;7.80;99.90;;;;;;5048169;28;20547;-75
2021/11/15 03:04:49;;;;;;;27.50;11.90;;;7.80;99.90;;;;;;5048261;28;20682;-75
2021/11/15 03:07:17;;;;;;;28.60;13.03;;;7.80;99.90;;;;;;5050417;28;20213;-76
2021/11/15 03:09:44;;;;;;;21.17;10.70;;;7.80;99.90;;;;;;5049875;28;20194;-75
2021/11/15 03:12:12;;;;;;;21.27;10.17;;;7.90;99.90;;;;;;5049538;28;20196;-75
2021/11/15 03:14:39;;;;;;;22.27;11.10;;;7.80;99.90;;;;;;5044384;28;20297;-75
2021/11/15 03:17:06;;;;;;;20.97;11.27;;;7.80;99.90;;;;;;5048258;28;20190;-75
2021/11/15 03:19:33;;;;;;;25.67;12.00;;;7.80;99.90;;;;;;5049179;28;20205;-75
2021/11/15 03:22:00;;;;;;;28.50;12.47;;;7.80;99.90;;;;;;5050168;28;20194;-75
2021/11/15 03:24:27;;;;;;;22.90;11.23;;;7.80;99.90;;;;;;5050284;28;20198;-74
2021/11/15 03:26:54;;;;;;;22.60;10.97;;;7.80;99.90;;;;;;5047959;28;20217;-74
2021/11/15 03:29:22;;;;;;;19.53;10.47;;;7.80;99.90;;;;;;5047616;28;20206;-75
2021/11/15 03:31:49;;;;;;;21.63;10.70;;;7.80;99.90;;;;;;5060352;28;20622;-74
2021/11/15 03:34:16;;;;;;;22.43;11.93;;;7.80;99.90;;;;;;5040460;28;20202;-74
2021/11/15 03:36:45;;;;;;;24.87;11.33;;;7.80;99.90;;;;;;5048474;28;20209;-75
2021/11/15 03:39:14;;;;;;;22.70;10.87;;;7.80;99.90;;;;;;5049635;28;20742;-75
2021/11/15 03:41:43;;;;;;;22.67;10.87;;;7.80;99.90;;;;;;5044574;28;20229;-75
2021/11/15 03:44:11;;;;;;;20.47;10.47;;;7.80;99.90;;;;;;5048809;28;20271;-75
2021/11/15 03:46:41;;;;;;;23.47;11.40;;;7.70;99.90;;;;;;5049891;28;20214;-75
2021/11/15 03:49:14;;;;;;;26.40;12.40;;;7.80;99.90;;;;;;5049283;28;20202;-75
2021/11/15 03:51:42;;;;;;;24.07;11.23;;;7.70;99.90;;;;;;5047842;28;20198;-75
2021/11/15 03:54:09;;;;;;;27.23;12.80;;;7.70;99.90;;;;;;5048320;28;20224;-74
2021/11/15 03:56:37;;;;;;;24.20;11.43;;;7.70;99.90;;;;;;5047695;28;20711;-75
2021/11/15 03:59:09;;;;;;;27.23;12.97;;;7.60;99.90;;;;;;5047418;28;20248;-74
2021/11/15 04:01:38;;;;;;;23.40;11.40;;;7.60;99.90;;;;;;5047405;28;20367;-74
2021/11/15 04:04:08;;;;;;;25.63;11.57;;;7.60;99.90;;;;;;5053032;28;20226;-75
2021/11/15 04:06:39;;;;;;;21.17;10.87;;;7.60;99.90;;;;;;5047317;28;20308;-75
2021/11/15 04:09:09;;;;;;;22.47;11.13;;;7.70;99.90;;;;;;5048503;28;20213;-75
2021/11/15 04:11:38;;;;;;;19.40;9.53;;;7.60;99.90;;;;;;5046772;28;20205;-75
2021/11/15 04:14:07;;;;;;;21.57;10.30;;;7.70;99.90;;;;;;5046452;28;20292;-75
2021/11/15 04:16:35;;;;;;;21.43;9.80;;;7.70;99.90;;;;;;5048396;28;20204;-75
2021/11/15 04:19:06;;;;;;;23.07;10.83;;;7.70;99.90;;;;;;5047407;28;20685;-75
2021/11/15 04:21:34;;;;;;;26.60;12.17;;;7.70;99.90;;;;;;5046919;28;20587;-75
2021/11/15 04:24:02;;;;;;;24.27;11.50;;;7.70;99.90;;;;;;5055715;28;20534;-75
2021/11/15 04:26:29;;;;;;;22.00;10.90;;;7.70;99.90;;;;;;5043078;28;20227;-74
2021/11/15 04:28:56;;;;;;;26.17;11.73;;;7.70;99.90;;;;;;5048366;28;20720;-75
2021/11/15 04:31:23;;;;;;;23.40;11.10;;;7.70;99.90;;;;;;5048050;28;20205;-75
2021/11/15 04:33:50;;;;;;;21.13;11.23;;;7.70;99.90;;;;;;5061170;28;20198;-75
2021/11/15 04:36:17;;;;;;;23.23;11.10;;;7.70;99.90;;;;;;5048608;28;20194;-75
2021/11/15 04:38:46;;;;;;;22.33;10.73;;;7.70;99.90;;;;;;5048895;28;20233;-75
2021/11/15 04:41:13;;;;;;;23.77;10.93;;;7.70;99.90;;;;;;5047286;28;20202;-75
2021/11/15 04:43:40;;;;;;;20.77;9.50;;;7.70;99.90;;;;;;5048127;28;20220;-75
2021/11/15 04:46:07;;;;;;;20.97;10.37;;;7.70;99.90;;;;;;5048955;28;20755;-75
2021/11/15 04:48:34;;;;;;;20.27;8.77;;;7.70;99.90;;;;;;5047502;28;20190;-75
2021/11/15 04:51:01;;;;;;;23.00;11.70;;;7.80;99.90;;;;;;5048000;28;20618;-75
2021/11/15 04:53:28;;;;;;;21.80;10.40;;;7.80;99.90;;;;;;5039762;28;20205;-75
2021/11/15 04:55:56;;;;;;;21.20;9.93;;;7.80;99.90;;;;;;5046361;28;20229;-75
2021/11/15 04:58:23;;;;;;;23.40;11.63;;;7.80;99.90;;;;;;5049239;28;20669;-75
2021/11/15 05:00:52;;;;;;;28.10;11.87;;;7.80;99.90;;;;;;5055602;28;20684;-75
2021/11/15 05:03:21;;;;;;;26.00;12.40;;;7.70;99.90;;;;;;5047922;28;20196;-75
2021/11/15 05:05:48;;;;;;;23.50;11.67;;;7.70;99.90;;;;;;5046357;28;20216;-75
2021/11/15 05:08:15;;;;;;;24.63;11.60;;;7.70;99.90;;;;;;5047630;28;20202;-75
2021/11/15 05:10:42;;;;;;;17.57;9.70;;;7.60;99.90;;;;;;5046107;28;20268;-75
2021/11/15 05:13:10;;;;;;;19.90;10.00;;;7.60;99.90;;;;;;5052559;28;20297;-74
2021/11/15 05:15:37;;;;;;;25.50;11.57;;;7.60;99.90;;;;;;5047340;28;20201;-75
2021/11/15 05:18:04;;;;;;;22.07;11.10;;;7.60;99.90;;;;;;5046755;28;20632;-75
2021/11/15 05:20:31;;;;;;;21.57;10.30;;;7.60;99.90;;;;;;5045945;28;20385;-75
2021/11/15 05:22:58;;;;;;;23.37;11.33;;;7.60;99.90;;;;;;5046818;28;20208;-75
2021/11/15 05:25:26;;;;;;;22.00;10.60;;;7.60;99.90;;;;;;5044649;28;20198;-74
2021/11/15 05:27:53;;;;;;;17.93;9.13;;;7.50;99.90;;;;;;5063413;28;20315;-75
2021/11/15 05:30:22;;;;;;;20.13;10.83;;;7.60;99.90;;;;;;5045546;28;20204;-74
2021/11/15 05:32:51;;;;;;;16.93;8.67;;;7.60;99.90;;;;;;5047436;28;20197;-75
2021/11/15 05:35:19;;;;;;;16.77;8.83;;;7.50;99.90;;;;;;5045239;28;20208;-74
2021/11/15 05:37:48;;;;;;;19.13;9.70;;;7.60;99.90;;;;;;5063341;28;20206;-75
2021/11/15 05:40:16;;;;;;;16.70;8.77;;;7.60;99.90;;;;;;5032064;28;20285;-74
2021/11/15 05:42:43;;;;;;;12.80;7.40;;;7.60;99.90;;;;;;5044032;28;20280;-75
2021/11/15 05:45:11;;;;;;;21.53;10.27;;;7.50;99.90;;;;;;5036848;28;20201;-74
2021/11/15 05:47:41;;;;;;;18.57;9.73;;;7.50;99.90;;;;;;5062708;28;20230;-75
2021/11/15 05:50:10;;;;;;;16.67;9.47;;;7.50;99.90;;;;;;5038079;28;20209;-74
2021/11/15 05:52:40;;;;;;;20.20;10.23;;;7.50;99.90;;;;;;5059802;28;20206;-74
2021/11/15 05:55:08;;;;;;;20.40;10.30;;;7.50;99.90;;;;;;5046181;28;20202;-75
2021/11/15 05:57:35;;;;;;;20.20;10.97;;;7.50;99.90;;;;;;5047433;28;20297;-74
2021/11/15 06:00:03;;;;;;;20.73;10.80;;;7.50;99.90;;;;;;5051041;28;20194;-73
2021/11/15 06:02:37;;;;;;;21.13;11.10;;;7.50;99.90;;;;;;5050839;28;20201;-74
2021/11/15 06:05:07;;;;;;;24.30;11.73;;;7.50;99.90;;;;;;5049299;28;20301;-74
2021/11/15 06:07:35;;;;;;;19.53;10.70;;;7.50;99.90;;;;;;5044964;28;20317;-74
2021/11/15 06:10:02;;;;;;;17.70;9.63;;;7.50;99.90;;;;;;5049653;28;20431;-74
2021/11/15 06:12:29;;;;;;;14.33;8.30;;;7.40;99.90;;;;;;5049528;28;20225;-74
2021/11/15 06:14:56;;;;;;;19.53;9.57;;;7.40;99.90;;;;;;5049386;28;20701;-73
2021/11/15 06:17:23;;;;;;;20.20;9.73;;;7.40;99.90;;;;;;5066800;28;20297;-75
2021/11/15 06:19:50;;;;;;;22.13;10.63;;;7.50;99.90;;;;;;5050301;28;20696;-74
2021/11/15 06:22:18;;;;;;;24.13;11.07;;;7.50;99.90;;;;;;5051568;28;20600;-74
2021/11/15 06:24:48;;;;;;;22.97;10.90;;;7.40;99.90;;;;;;5048800;28;20682;-74
2021/11/15 06:27:15;;;;;;;22.80;11.77;;;7.40;99.90;;;;;;5051250;28;20218;-75
2021/11/15 06:29:42;;;;;;;24.07;12.17;;;7.40;99.90;;;;;;5049891;28;20588;-74
2021/11/15 06:32:10;;;;;;;29.90;13.80;;;7.40;99.90;;;;;;5058729;28;20230;-74
2021/11/15 06:34:37;;;;;;;23.07;11.67;;;7.30;99.90;;;;;;5044602;28;20259;-75
2021/11/15 06:37:05;;;;;;;24.37;12.60;;;7.30;99.90;;;;;;5051413;28;20198;-74
2021/11/15 06:39:34;;;;;;;28.63;13.07;;;7.30;99.90;;;;;;5050962;28;20197;-73
2021/11/15 06:42:02;;;;;;;27.23;12.50;;;7.30;99.90;;;;;;5048621;28;20518;-74
2021/11/15 06:44:31;;;;;;;23.43;12.07;;;7.30;99.90;;;;;;5054768;28;20566;-73
2021/11/15 06:46:58;;;;;;;27.10;13.00;;;7.30;99.90;;;;;;5049456;28;20227;-74
2021/11/15 06:49:25;;;;;;;21.47;11.57;;;7.20;99.90;;;;;;5048136;28;20600;-74
2021/11/15 06:51:52;;;;;;;27.50;12.77;;;7.20;99.90;;;;;;5048928;28;20701;-74
2021/11/15 06:54:20;;;;;;;27.93;12.40;;;7.20;99.90;;;;;;5048553;28;20233;-74
2021/11/15 06:56:48;;;;;;;23.27;11.23;;;7.20;99.90;;;;;;5048469;28;20229;-75
2021/11/15 06:59:15;;;;;;;22.67;11.70;;;7.20;99.90;;;;;;5048511;28;20683;-74
2021/11/15 07:01:43;;;;;;;23.27;11.03;;;7.20;99.90;;;;;;5050014;28;20211;-75
2021/11/15 07:04:10;;;;;;;24.07;12.17;;;7.20;99.90;;;;;;5048143;28;20208;-75
2021/11/15 07:06:38;;;;;;;21.53;11.43;;;7.20;99.90;;;;;;5050281;28;20688;-75
2021/11/15 07:09:06;;;;;;;25.00;11.27;;;7.20;99.90;;;;;;5038981;28;20234;-75
2021/11/15 07:11:34;;;;;;;25.47;12.10;;;7.20;99.90;;;;;;5063315;28;20660;-75
2021/11/15 07:14:03;;;;;;;26.50;12.43;;;7.10;99.90;;;;;;5049267;28;20618;-75
2021/11/15 07:16:30;;;;;;;27.43;12.53;;;7.20;99.90;;;;;;5050081;28;20554;-75
2021/11/15 07:18:57;;;;;;;28.40;13.27;;;7.10;99.90;;;;;;5048453;28;20194;-74
2021/11/15 07:21:25;;;;;;;29.70;12.90;;;7.10;99.90;;;;;;5049803;28;20281;-75
2021/11/15 07:23:53;;;;;;;26.77;13.47;;;7.10;99.90;;;;;;5048515;28;20221;-74
2021/11/15 07:26:21;;;;;;;26.23;12.90;;;7.10;99.90;;;;;;5045579;28;20683;-75
2021/11/15 07:28:49;;;;;;;26.87;12.67;;;7.00;99.90;;;;;;5037957;28;20243;-75
2021/11/15 07:31:17;;;;;;;29.00;14.00;;;7.00;99.90;;;;;;5035318;28;20197;-75
2021/11/15 07:33:44;;;;;;;25.33;12.53;;;7.00;99.90;;;;;;5052047;28;20687;-74
2021/11/15 07:36:12;;;;;;;24.93;12.20;;;7.00;99.90;;;;;;5041383;28;20624;-75
2021/11/15 07:38:39;;;;;;;24.20;12.10;;;7.00;99.90;;;;;;5055538;28;20201;-74
2021/11/15 07:41:06;;;;;;;26.23;12.53;;;7.00;99.90;;;;;;5035795;28;20205;-73
2021/11/15 07:43:33;;;;;;;23.83;11.43;;;7.00;99.90;;;;;;5029976;28;20207;-73
2021/11/15 07:46:00;;;;;;;22.63;12.33;;;7.00;99.90;;;;;;5033510;28;20734;-72
2021/11/15 07:48:29;;;;;;;22.67;10.97;;;7.10;99.90;;;;;;5044049;28;20225;-72
2021/11/15 07:50:56;;;;;;;18.60;9.93;;;7.00;99.90;;;;;;5040464;28;20207;-72
2021/11/15 07:53:24;;;;;;;16.37;9.23;;;7.00;99.90;;;;;;5039168;28;20193;-71
2021/11/15 07:55:51;;;;;;;25.60;12.50;;;7.00;99.90;;;;;;5037016;28;20302;-73
2021/11/15 07:58:21;;;;;;;20.57;10.53;;;7.10;99.90;;;;;;5044938;28;20565;-72
2021/11/15 08:00:49;;;;;;;16.27;8.90;;;6.80;99.90;;;;;;5040503;28;20216;-73
2021/11/15 08:03:16;;;;;;;25.53;12.63;;;7.10;99.90;;;;;;5039065;28;20200;-73
2021/11/15 08:05:44;;;;;;;23.40;11.93;;;7.10;99.90;;;;;;5036632;28;20232;-73
2021/11/15 08:08:12;;;;;;;22.43;12.23;;;7.10;99.90;;;;;;5043060;28;20222;-72
2021/11/15 08:10:39;;;;;;;18.93;10.87;;;7.10;99.90;;;;;;5031184;28;20237;-73
2021/11/15 08:13:06;;;;;;;25.97;12.00;;;7.10;99.90;;;;;;5036367;28;20645;-72
2021/11/15 08:15:33;;;;;;;20.30;10.20;;;7.10;99.90;;;;;;5037612;28;20201;-72
2021/11/15 08:18:03;;;;;;;17.60;9.53;;;7.10;99.90;;;;;;5041763;28;20646;-73
2021/11/15 08:20:32;;;;;;;20.83;10.33;;;7.10;99.90;;;;;;5036527;28;20221;-72
2021/11/15 08:23:03;;;;;;;19.50;10.73;;;7.10;99.90;;;;;;5032716;28;21362;-71
2021/11/15 08:26:13;;;;;;;16.97;8.77;;;7.10;99.90;;;;;;5033278;28;20205;-72
2021/11/15 08:28:40;;;;;;;22.10;10.97;;;7.20;99.90;;;;;;5036665;28;20218;-72
2021/11/15 08:31:09;;;;;;;24.23;11.57;;;7.20;99.90;;;;;;5045088;28;20283;-72
2021/11/15 08:33:36;;;;;;;20.67;11.40;;;7.20;99.90;;;;;;5041680;28;20226;-72
2021/11/15 08:36:04;;;;;;;21.83;11.70;;;7.20;99.90;;;;;;5041776;28;20235;-72
2021/11/15 08:38:46;;;;;;;20.67;10.83;;;7.20;99.90;;;;;;5043967;28;20224;-72
2021/11/15 08:41:16;;;;;;;23.00;11.03;;;7.20;99.90;;;;;;5035694;28;20209;-72
2021/11/15 08:43:44;;;;;;;20.63;11.07;;;7.20;99.90;;;;;;5040645;28;20197;-71
2021/11/15 08:46:15;;;;;;;23.57;12.03;;;7.20;99.90;;;;;;5042682;28;20201;-71
2021/11/15 08:48:43;;;;;;;18.00;10.20;;;7.20;99.90;;;;;;5041122;28;20305;-71
2021/11/15 08:51:12;;;;;;;18.47;9.07;;;7.20;99.90;;;;;;5042567;28;20607;-72
2021/11/15 08:53:41;;;;;;;15.20;8.83;;;7.20;99.90;;;;;;5043103;28;20190;-72
2021/11/15 08:56:09;;;;;;;16.83;9.17;;;7.30;99.90;;;;;;5036844;28;20686;-72
2021/11/15 08:58:38;;;;;;;23.60;9.93;;;7.30;99.90;;;;;;5037288;28;20781;-71
2021/11/15 09:01:05;;;;;;;26.90;11.57;;;7.30;99.90;;;;;;5034183;28;20731;-72
2021/11/15 09:03:34;;;;;;;23.53;11.80;;;7.30;99.90;;;;;;5034265;28;20198;-72
2021/11/15 09:06:01;;;;;;;29.23;13.90;;;7.30;99.90;;;;;;5036262;28;20186;-72
2021/11/15 09:08:28;;;;;;;26.77;12.80;;;7.30;99.90;;;;;;5054743;28;20305;-72
2021/11/15 09:10:56;;;;;;;27.80;13.20;;;7.20;99.90;;;;;;5036795;28;20659;-71
2021/11/15 09:13:23;;;;;;;23.20;11.80;;;7.20;99.90;;;;;;5032793;28;20197;-72
2021/11/15 09:15:50;;;;;;;17.47;9.90;;;7.20;99.90;;;;;;5031860;28;20604;-73
2021/11/15 09:18:17;;;;;;;19.50;10.37;;;7.30;99.90;;;;;;5028519;28;20618;-73
2021/11/15 09:20:45;;;;;;;26.27;11.10;;;7.30;99.90;;;;;;5032730;28;20586;-72
2021/11/15 09:23:12;;;;;;;20.40;11.13;;;7.40;99.90;;;;;;5043797;28;20204;-72
2021/11/15 09:25:41;;;;;;;22.42;11.82;;;7.40;99.90;;;;;;5038296;28;21031;-72
2021/11/15 09:28:10;;;;;;;17.70;9.53;;;7.30;99.90;;;;;;5038709;28;20598;-72
2021/11/15 09:30:39;;;;;;;25.50;12.43;;;7.40;99.90;;;;;;5042464;28;20313;-72
2021/11/15 09:33:07;;;;;;;25.73;11.67;;;7.40;99.90;;;;;;5039517;28;20305;-71
2021/11/15 09:35:34;;;;;;;20.70;11.03;;;7.40;99.90;;;;;;5046743;28;20194;-72
2021/11/15 09:38:02;;;;;;;29.83;13.20;;;7.40;99.90;;;;;;5044779;28;20688;-72
2021/11/15 09:40:29;;;;;;;29.13;13.77;;;7.40;99.90;;;;;;5061508;28;20204;-70
2021/11/15 09:42:58;;;;;;;33.00;14.07;;;7.40;99.90;;;;;;5043852;28;20214;-72
2021/11/15 09:45:27;;;;;;;31.80;15.27;;;7.40;99.90;;;;;;5044562;28;20247;-72
2021/11/15 09:47:57;;;;;;;24.00;12.10;;;7.40;99.90;;;;;;5043563;28;20209;-71
2021/11/15 09:50:25;;;;;;;23.20;11.80;;;7.40;99.90;;;;;;5044810;28;20216;-72
2021/11/15 09:52:52;;;;;;;25.37;12.47;;;7.40;99.90;;;;;;5045629;28;20200;-72
2021/11/15 09:55:19;;;;;;;26.50;13.13;;;7.40;99.90;;;;;;5038516;28;20312;-72
2021/11/15 09:57:48;;;;;;;18.10;10.03;;;7.40;99.90;;;;;;5045822;28;20197;-72
2021/11/15 10:00:20;;;;;;;18.30;9.57;;;7.50;99.90;;;;;;5043688;28;20357;-71
2021/11/15 10:02:49;;;;;;;17.40;9.07;;;7.50;99.90;;;;;;5045669;28;20681;-71
2021/11/15 10:05:17;;;;;;;17.73;9.23;;;7.60;99.90;;;;;;5043605;28;20251;-71
2021/11/15 10:07:47;;;;;;;20.07;10.30;;;7.60;99.90;;;;;;5037527;28;20218;-72
2021/11/15 10:10:38;;;;;;;23.37;11.63;;;7.70;99.90;;;;;;5046538;28;20206;-71
2021/11/15 10:13:22;;;;;;;21.47;11.20;;;7.60;99.90;;;;;;5038161;28;20578;-71
2021/11/15 10:15:59;;;;;;;17.20;8.97;;;7.70;99.90;;;;;;5036206;28;20205;-71
2021/11/15 10:18:41;;;;;;;22.00;10.70;;;7.70;99.90;;;;;;5045800;28;20199;-71
2021/11/15 10:21:13;;;;;;;18.13;9.57;;;7.80;99.90;;;;;;5038684;28;20377;-70
2021/11/15 10:23:45;;;;;;;22.03;12.03;;;7.90;99.90;;;;;;5040602;28;20429;-71
2021/11/15 10:26:17;;;;;;;19.60;11.13;;;7.90;99.90;;;;;;5041858;28;21140;-72
2021/11/15 10:28:45;;;;;;;18.23;10.10;;;8.10;99.90;;;;;;5039385;28;20219;-72
2021/11/15 10:31:30;;;;;;;18.97;10.07;;;8.20;99.90;;;;;;5043253;28;20204;-72
2021/11/15 10:33:59;;;;;;;23.00;11.10;;;8.20;99.90;;;;;;5043519;28;20208;-72
2021/11/15 10:36:57;;;;;;;25.27;12.03;;;8.30;99.90;;;;;;5046378;28;20240;-72
2021/11/15 10:39:29;;;;;;;20.40;10.40;;;8.30;99.90;;;;;;5045582;28;20654;-72
2021/11/15 10:42:03;;;;;;;16.57;9.37;;;8.30;99.90;;;;;;5027500;28;20190;-71
2021/11/15 10:44:31;;;;;;;19.57;10.70;;;8.30;99.90;;;;;;5046063;28;20198;-72
2021/11/15 10:46:59;;;;;;;16.27;8.20;;;8.30;99.90;;;;;;5038845;28;20209;-72
2021/11/15 10:49:28;;;;;;;18.87;8.87;;;8.30;99.90;;;;;;5036080;28;20714;-72
2021/11/15 10:51:59;;;;;;;17.93;9.27;;;8.40;99.90;;;;;;5042645;28;20204;-71
2021/11/15 10:54:45;;;;;;;15.97;9.00;;;8.50;99.90;;;;;;5042564;28;20205;-71
2021/11/15 10:57:22;;;;;;;16.33;8.73;;;8.50;99.90;;;;;;5036319;28;20242;-71
2021/11/15 11:00:11;;;;;;;14.23;7.43;;;8.60;99.90;;;;;;5040188;28;20188;-71
2021/11/15 11:02:41;;;;;;;19.67;9.07;;;8.60;99.90;;;;;;5032033;28;20284;-72
2021/11/15 11:05:11;;;;;;;13.88;8.52;;;8.70;99.90;;;;;;5040459;28;20971;-72
2021/11/15 11:07:41;;;;;;;22.07;11.80;;;8.70;99.90;;;;;;5045602;28;20206;-71
2021/11/15 11:10:09;;;;;;;20.30;11.13;;;8.80;99.90;;;;;;5043178;28;20797;-71
2021/11/15 11:12:40;;;;;;;22.27;10.77;;;8.80;99.90;;;;;;5035508;28;20247;-72
2021/11/15 11:15:27;;;;;;;19.70;10.47;;;8.70;99.90;;;;;;5034432;28;20201;-71
2021/11/15 11:17:59;;;;;;;21.57;10.63;;;8.70;99.90;;;;;;5036816;28;20647;-72
2021/11/15 11:20:37;;;;;;;15.37;8.50;;;8.70;99.90;;;;;;5040623;28;20281;-71
2021/11/15 11:23:22;;;;;;;17.10;9.40;;;8.70;99.90;;;;;;5042085;28;20198;-71
2021/11/15 11:25:49;;;;;;;15.33;8.60;;;8.70;99.90;;;;;;5044132;28;20201;-71
2021/11/15 11:28:29;;;;;;;21.17;10.30;;;8.70;99.90;;;;;;5034364;28;20222;-72
2021/11/15 11:30:57;;;;;;;20.97;10.50;;;8.70;99.90;;;;;;5040691;28;20213;-71
2021/11/15 11:33:25;;;;;;;22.50;10.97;;;8.70;99.90;;;;;;5043797;28;20921;-72
2021/11/15 11:35:54;;;;;;;19.03;9.33;;;8.70;99.90;;;;;;5045050;28;20265;-70
2021/11/15 11:38:21;;;;;;;26.50;12.40;;;8.60;99.90;;;;;;5033454;28;20218;-70
2021/11/15 11:40:49;;;;;;;21.03;10.33;;;8.60;99.90;;;;;;5043999;28;20199;-73
2021/11/15 11:43:17;;;;;;;20.13;10.47;;;8.60;99.90;;;;;;5041385;28;20202;-72
2021/11/15 11:45:44;;;;;;;21.00;10.27;;;8.60;99.90;;;;;;5038354;28;20202;-71
2021/11/15 11:48:11;;;;;;;22.63;10.50;;;8.60;99.90;;;;;;5039661;28;20564;-72
2021/11/15 11:50:39;;;;;;;20.33;9.97;;;8.60;99.90;;;;;;5029073;28;20199;-72
2021/11/15 11:53:10;;;;;;;16.23;8.60;;;8.60;99.90;;;;;;5041900;28;20581;-73
2021/11/15 11:55:41;;;;;;;14.73;8.30;;;8.60;99.90;;;;;;5043493;28;20241;-72
2021/11/15 11:58:24;;;;;;;21.60;10.27;;;8.70;99.90;;;;;;5057910;28;20202;-72
2021/11/15 12:00:54;;;;;;;22.73;11.63;;;8.70;99.90;;;;;;5040985;28;20233;-72
2021/11/15 12:03:23;;;;;;;25.70;11.67;;;8.80;99.90;;;;;;5061546;28;20259;-72
2021/11/15 12:05:50;;;;;;;22.03;10.60;;;8.70;99.90;;;;;;5036230;28;20189;-72
2021/11/15 12:08:19;;;;;;;19.87;10.53;;;8.70;99.90;;;;;;5039259;28;20226;-72
2021/11/15 12:10:54;;;;;;;19.37;10.43;;;8.70;99.90;;;;;;5030005;28;20663;-72
2021/11/15 12:13:23;;;;;;;19.15;10.52;;;8.70;99.90;;;;;;5035689;28;20994;-72
2021/11/15 12:15:58;;;;;;;20.10;10.30;;;8.70;99.90;;;;;;5036171;28;20208;-71
2021/11/15 12:18:27;;;;;;;24.97;11.97;;;8.70;99.90;;;;;;5039054;28;20198;-70
2021/11/15 12:21:17;;;;;;;21.87;10.50;;;8.80;99.90;;;;;;5036647;28;20229;-71
2021/11/15 12:24:09;;;;;;;21.90;10.77;;;8.80;99.90;;;;;;5036149;28;20198;-72
2021/11/15 12:26:46;;;;;;;22.07;10.20;;;8.90;99.90;;;;;;5042920;28;20211;-72
2021/11/15 12:29:27;;;;;;;23.30;11.07;;;8.80;99.90;;;;;;5054296;28;20236;-71
2021/11/15 12:31:57;;;;;;;24.77;11.67;;;8.80;99.90;;;;;;5043644;28;20612;-71
2021/11/15 12:34:27;;;;;;;23.40;11.70;;;8.80;99.90;;;;;;5036031;28;20279;-71
2021/11/15 12:36:56;;;;;;;21.00;10.43;;;8.80;99.90;;;;;;5052249;28;20260;-71
2021/11/15 12:39:28;;;;;;;18.97;9.70;;;8.80;99.90;;;;;;5038614;28;20204;-71
2021/11/15 12:41:58;;;;;;;17.13;9.03;;;8.70;99.90;;;;;;5038109;28;20309;-72
2021/11/15 12:44:36;;;;;;;18.03;9.13;;;8.70;99.90;;;;;;5040107;28;20709;-73
2021/11/15 12:47:07;;;;;;;15.40;8.23;;;8.70;99.90;;;;;;5033249;28;20197;-71
2021/11/15 12:49:37;;;;;;;19.90;10.20;;;8.80;99.90;;;;;;5036997;28;20724;-71